sensor_id;sensor_type;location;lat;lon;timestamp;P1;durP1;ratioP1;P2;durP2;ratioP2
6356;SDS011;3211;53.452;-2.264;2024-01-30T00:01:43;19.00;;;7.57;;
6356;SDS011;3211;53.452;-2.264;2024-01-30T00:04:30;17.20;;;9.00;;
6356;SDS011;3211;53.452;-2.264;2024-01-30T00:07:17;13.70;;;8.17;;
6356;SDS011;3211;53.452;-2.264;2024-01-30T00:10:05;17.77;;;7.67;;
6356;SDS011;3211;53.452;-2.264;2024-01-30T00:12:52;17.77;;;7.97;;
6356;SDS011;3211;53.452;-2.264;2024-01-30T00:15:41;17.20;;;8.33;;
6356;SDS011;3211;53.452;-2.264;2024-01-30T00:18:28;20.00;;;8.40;;
6356;SDS011;3211;53.452;-2.264;2024-01-30T00:21:15;14.30;;;7.20;;
6356;SDS011;3211;53.452;-2.264;2024-01-30T00:24:03;15.60;;;8.30;;
6356;SDS011;3211;53.452;-2.264;2024-01-30T00:26:50;13.40;;;9.17;;
6356;SDS011;3211;53.452;-2.264;2024-01-30T00:29:38;19.50;;;10.43;;
6356;SDS011;3211;53.452;-2.264;2024-01-30T00:32:26;22.87;;;11.60;;
6356;SDS011;3211;53.452;-2.264;2024-01-30T00:35:14;16.67;;;9.60;;
6356;SDS011;3211;53.452;-2.264;2024-01-30T00:38:01;15.63;;;8.83;;
6356;SDS011;3211;53.452;-2.264;2024-01-30T00:40:48;11.30;;;7.33;;
6356;SDS011;3211;53.452;-2.264;2024-01-30T00:43:36;9.87;;;7.40;;
6356;SDS011;3211;53.452;-2.264;2024-01-30T00:46:23;7.27;;;5.47;;
6356;SDS011;3211;53.452;-2.264;2024-01-30T00:49:12;7.80;;;5.13;;
6356;SDS011;3211;53.452;-2.264;2024-01-30T00:51:59;5.17;;;3.93;;
6356;SDS011;3211;53.452;-2.264;2024-01-30T00:54:46;7.40;;;4.70;;
6356;SDS011;3211;53.452;-2.264;2024-01-30T00:57:33;5.70;;;4.70;;
6356;SDS011;3211;53.452;-2.264;2024-01-30T01:00:20;5.20;;;4.07;;
6356;SDS011;3211;53.452;-2.264;2024-01-30T01:03:14;4.20;;;3.70;;
6356;SDS011;3211;53.452;-2.264;2024-01-30T01:06:02;4.83;;;4.20;;
6356;SDS011;3211;53.452;-2.264;2024-01-30T01:08:50;4.07;;;3.67;;
6356;SDS011;3211;53.452;-2.264;2024-01-30T01:11:37;3.87;;;3.57;;
6356;SDS011;3211;53.452;-2.264;2024-01-30T01:14:25;4.33;;;3.70;;
6356;SDS011;3211;53.452;-2.264;2024-01-30T01:17:12;4.57;;;3.00;;
6356;SDS011;3211;53.452;-2.264;2024-01-30T01:19:59;4.93;;;3.27;;
6356;SDS011;3211;53.452;-2.264;2024-01-30T01:22:48;3.33;;;3.00;;
6356;SDS011;3211;53.452;-2.264;2024-01-30T01:25:35;3.50;;;3.20;;
6356;SDS011;3211;53.452;-2.264;2024-01-30T01:28:22;4.20;;;3.57;;
6356;SDS011;3211;53.452;-2.264;2024-01-30T01:31:09;4.33;;;3.70;;
6356;SDS011;3211;53.452;-2.264;2024-01-30T01:33:57;3.90;;;3.50;;
6356;SDS011;3211;53.452;-2.264;2024-01-30T01:36:44;4.70;;;4.10;;
6356;SDS011;3211;53.452;-2.264;2024-01-30T01:39:33;4.90;;;4.40;;
6356;SDS011;3211;53.452;-2.264;2024-01-30T01:42:20;4.33;;;3.70;;
6356;SDS011;3211;53.452;-2.264;2024-01-30T01:45:08;9.30;;;6.37;;
6356;SDS011;3211;53.452;-2.264;2024-01-30T01:47:55;4.70;;;4.03;;
6356;SDS011;3211;53.452;-2.264;2024-01-30T01:50:42;5.10;;;3.90;;
6356;SDS011;3211;53.452;-2.264;2024-01-30T01:53:30;4.40;;;3.93;;
6356;SDS011;3211;53.452;-2.264;2024-01-30T01:56:20;4.50;;;3.40;;
6356;SDS011;3211;53.452;-2.264;2024-01-30T01:59:08;4.13;;;3.43;;
6356;SDS011;3211;53.452;-2.264;2024-01-30T02:01:56;3.93;;;3.40;;
6356;SDS011;3211;53.452;-2.264;2024-01-30T02:04:43;3.70;;;3.30;;
6356;SDS011;3211;53.452;-2.264;2024-01-30T02:07:31;4.77;;;3.40;;
6356;SDS011;3211;53.452;-2.264;2024-01-30T02:10:18;3.80;;;3.40;;
6356;SDS011;3211;53.452;-2.264;2024-01-30T02:13:07;5.00;;;3.63;;
6356;SDS011;3211;53.452;-2.264;2024-01-30T02:15:54;4.10;;;3.40;;
6356;SDS011;3211;53.452;-2.264;2024-01-30T02:18:41;4.90;;;3.87;;
6356;SDS011;3211;53.452;-2.264;2024-01-30T02:21:34;3.70;;;3.40;;
6356;SDS011;3211;53.452;-2.264;2024-01-30T02:24:21;5.03;;;3.87;;
6356;SDS011;3211;53.452;-2.264;2024-01-30T02:27:08;3.47;;;3.17;;
6356;SDS011;3211;53.452;-2.264;2024-01-30T02:29:56;4.00;;;3.20;;
6356;SDS011;3211;53.452;-2.264;2024-01-30T02:32:43;2.83;;;2.57;;
6356;SDS011;3211;53.452;-2.264;2024-01-30T02:35:30;3.60;;;2.80;;
6356;SDS011;3211;53.452;-2.264;2024-01-30T02:38:20;3.37;;;2.83;;
6356;SDS011;3211;53.452;-2.264;2024-01-30T02:41:08;3.63;;;2.63;;
6356;SDS011;3211;53.452;-2.264;2024-01-30T02:43:55;3.20;;;2.90;;
6356;SDS011;3211;53.452;-2.264;2024-01-30T02:46:43;2.40;;;2.20;;
6356;SDS011;3211;53.452;-2.264;2024-01-30T02:49:30;2.03;;;1.70;;
6356;SDS011;3211;53.452;-2.264;2024-01-30T02:52:17;2.30;;;2.10;;
6356;SDS011;3211;53.452;-2.264;2024-01-30T02:55:06;6.33;;;1.97;;
6356;SDS011;3211;53.452;-2.264;2024-01-30T02:57:54;2.10;;;1.70;;
6356;SDS011;3211;53.452;-2.264;2024-01-30T03:00:41;2.70;;;1.80;;
6356;SDS011;3211;53.452;-2.264;2024-01-30T03:03:29;3.03;;;2.20;;
6356;SDS011;3211;53.452;-2.264;2024-01-30T03:06:16;3.20;;;2.47;;
6356;SDS011;3211;53.452;-2.264;2024-01-30T03:09:05;3.20;;;2.00;;
6356;SDS011;3211;53.452;-2.264;2024-01-30T03:11:56;2.60;;;2.30;;
6356;SDS011;3211;53.452;-2.264;2024-01-30T03:14:43;4.13;;;2.80;;
6356;SDS011;3211;53.452;-2.264;2024-01-30T03:17:30;2.53;;;2.20;;
6356;SDS011;3211;53.452;-2.264;2024-01-30T03:20:17;2.40;;;2.03;;
6356;SDS011;3211;53.452;-2.264;2024-01-30T03:23:05;2.43;;;1.80;;
6356;SDS011;3211;53.452;-2.264;2024-01-30T03:25:52;3.07;;;1.70;;
6356;SDS011;3211;53.452;-2.264;2024-01-30T03:28:40;2.57;;;1.83;;
6356;SDS011;3211;53.452;-2.264;2024-01-30T03:31:28;2.43;;;2.13;;
6356;SDS011;3211;53.452;-2.264;2024-01-30T03:34:15;2.60;;;2.40;;
6356;SDS011;3211;53.452;-2.264;2024-01-30T03:37:02;2.30;;;2.03;;
6356;SDS011;3211;53.452;-2.264;2024-01-30T03:39:50;2.37;;;2.07;;
6356;SDS011;3211;53.452;-2.264;2024-01-30T03:42:37;2.47;;;1.90;;
6356;SDS011;3211;53.452;-2.264;2024-01-30T03:45:25;2.00;;;1.83;;
6356;SDS011;3211;53.452;-2.264;2024-01-30T03:48:13;2.10;;;1.90;;
6356;SDS011;3211;53.452;-2.264;2024-01-30T03:51:00;5.23;;;1.90;;
6356;SDS011;3211;53.452;-2.264;2024-01-30T03:53:47;2.00;;;1.60;;
6356;SDS011;3211;53.452;-2.264;2024-01-30T03:56:34;2.20;;;2.00;;
6356;SDS011;3211;53.452;-2.264;2024-01-30T03:59:22;2.83;;;1.60;;
6356;SDS011;3211;53.452;-2.264;2024-01-30T04:02:11;1.97;;;1.87;;
6356;SDS011;3211;53.452;-2.264;2024-01-30T04:04:58;1.63;;;1.53;;
6356;SDS011;3211;53.452;-2.264;2024-01-30T04:07:45;1.73;;;1.63;;
6356;SDS011;3211;53.452;-2.264;2024-01-30T04:10:32;1.60;;;1.50;;
6356;SDS011;3211;53.452;-2.264;2024-01-30T04:13:20;2.37;;;1.80;;
6356;SDS011;3211;53.452;-2.264;2024-01-30T04:16:07;1.77;;;1.30;;
6356;SDS011;3211;53.452;-2.264;2024-01-30T04:18:56;1.70;;;1.50;;
6356;SDS011;3211;53.452;-2.264;2024-01-30T04:21:43;1.80;;;1.27;;
6356;SDS011;3211;53.452;-2.264;2024-01-30T04:24:30;2.97;;;1.80;;
6356;SDS011;3211;53.452;-2.264;2024-01-30T04:27:18;2.53;;;1.43;;
6356;SDS011;3211;53.452;-2.264;2024-01-30T04:30:05;1.80;;;1.60;;
6356;SDS011;3211;53.452;-2.264;2024-01-30T04:32:53;1.73;;;1.60;;
6356;SDS011;3211;53.452;-2.264;2024-01-30T04:35:42;2.33;;;1.60;;
6356;SDS011;3211;53.452;-2.264;2024-01-30T04:38:29;1.50;;;1.40;;
6356;SDS011;3211;53.452;-2.264;2024-01-30T04:41:16;2.23;;;1.30;;
6356;SDS011;3211;53.452;-2.264;2024-01-30T04:44:04;1.23;;;1.13;;
6356;SDS011;3211;53.452;-2.264;2024-01-30T04:46:52;1.40;;;1.30;;
6356;SDS011;3211;53.452;-2.264;2024-01-30T04:49:39;1.70;;;1.60;;
6356;SDS011;3211;53.452;-2.264;2024-01-30T04:52:28;2.20;;;1.63;;
6356;SDS011;3211;53.452;-2.264;2024-01-30T04:55:15;1.80;;;1.70;;
6356;SDS011;3211;53.452;-2.264;2024-01-30T04:58:02;2.53;;;2.07;;
6356;SDS011;3211;53.452;-2.264;2024-01-30T05:00:50;2.13;;;1.60;;
6356;SDS011;3211;53.452;-2.264;2024-01-30T05:03:37;3.83;;;2.03;;
6356;SDS011;3211;53.452;-2.264;2024-01-30T05:06:24;2.03;;;1.83;;
6356;SDS011;3211;53.452;-2.264;2024-01-30T05:09:13;2.10;;;1.90;;
6356;SDS011;3211;53.452;-2.264;2024-01-30T05:12:00;2.47;;;2.27;;
6356;SDS011;3211;53.452;-2.264;2024-01-30T05:14:48;2.30;;;2.10;;
6356;SDS011;3211;53.452;-2.264;2024-01-30T05:17:35;3.30;;;2.57;;
6356;SDS011;3211;53.452;-2.264;2024-01-30T05:20:22;4.10;;;2.60;;
6356;SDS011;3211;53.452;-2.264;2024-01-30T05:23:09;2.87;;;2.20;;
6356;SDS011;3211;53.452;-2.264;2024-01-30T05:25:58;2.30;;;2.10;;
6356;SDS011;3211;53.452;-2.264;2024-01-30T05:28:46;2.77;;;2.47;;
6356;SDS011;3211;53.452;-2.264;2024-01-30T05:31:34;2.57;;;2.20;;
6356;SDS011;3211;53.452;-2.264;2024-01-30T05:34:21;2.80;;;2.30;;
6356;SDS011;3211;53.452;-2.264;2024-01-30T05:37:08;2.63;;;1.80;;
6356;SDS011;3211;53.452;-2.264;2024-01-30T05:39:59;3.07;;;2.27;;
6356;SDS011;3211;53.452;-2.264;2024-01-30T05:42:48;2.10;;;1.90;;
6356;SDS011;3211;53.452;-2.264;2024-01-30T05:45:35;2.90;;;2.60;;
6356;SDS011;3211;53.452;-2.264;2024-01-30T05:48:22;3.23;;;2.27;;
6356;SDS011;3211;53.452;-2.264;2024-01-30T05:51:09;2.17;;;1.73;;
6356;SDS011;3211;53.452;-2.264;2024-01-30T05:53:57;1.93;;;1.73;;
6356;SDS011;3211;53.452;-2.264;2024-01-30T05:56:44;1.93;;;1.70;;
6356;SDS011;3211;53.452;-2.264;2024-01-30T05:59:33;2.03;;;1.80;;
6356;SDS011;3211;53.452;-2.264;2024-01-30T06:02:21;2.80;;;1.53;;
6356;SDS011;3211;53.452;-2.264;2024-01-30T06:05:09;1.93;;;1.80;;
6356;SDS011;3211;53.452;-2.264;2024-01-30T06:07:56;2.57;;;2.03;;
6356;SDS011;3211;53.452;-2.264;2024-01-30T06:10:43;1.97;;;1.77;;
6356;SDS011;3211;53.452;-2.264;2024-01-30T06:13:30;1.97;;;1.67;;
6356;SDS011;3211;53.452;-2.264;2024-01-30T06:16:19;1.70;;;1.60;;
6356;SDS011;3211;53.452;-2.264;2024-01-30T06:19:08;4.90;;;1.90;;
6356;SDS011;3211;53.452;-2.264;2024-01-30T06:21:55;1.90;;;1.80;;
6356;SDS011;3211;53.452;-2.264;2024-01-30T06:24:44;2.00;;;1.80;;
6356;SDS011;3211;53.452;-2.264;2024-01-30T06:27:33;2.07;;;1.90;;
6356;SDS011;3211;53.452;-2.264;2024-01-30T06:30:20;1.90;;;1.80;;
6356;SDS011;3211;53.452;-2.264;2024-01-30T06:33:10;3.03;;;1.87;;
6356;SDS011;3211;53.452;-2.264;2024-01-30T06:35:58;2.00;;;1.80;;
6356;SDS011;3211;53.452;-2.264;2024-01-30T06:38:46;1.83;;;1.70;;
6356;SDS011;3211;53.452;-2.264;2024-01-30T06:41:33;2.40;;;2.07;;
6356;SDS011;3211;53.452;-2.264;2024-01-30T06:44:20;1.90;;;1.80;;
6356;SDS011;3211;53.452;-2.264;2024-01-30T06:47:08;2.30;;;2.10;;
6356;SDS011;3211;53.452;-2.264;2024-01-30T06:49:56;2.30;;;1.80;;
6356;SDS011;3211;53.452;-2.264;2024-01-30T06:52:43;2.03;;;1.80;;
6356;SDS011;3211;53.452;-2.264;2024-01-30T06:55:31;2.03;;;1.87;;
6356;SDS011;3211;53.452;-2.264;2024-01-30T06:58:18;2.03;;;1.83;;
6356;SDS011;3211;53.452;-2.264;2024-01-30T07:01:06;2.23;;;2.03;;
6356;SDS011;3211;53.452;-2.264;2024-01-30T07:03:53;2.27;;;2.07;;
6356;SDS011;3211;53.452;-2.264;2024-01-30T07:06:42;3.17;;;2.50;;
6356;SDS011;3211;53.452;-2.264;2024-01-30T07:09:29;2.73;;;2.00;;
6356;SDS011;3211;53.452;-2.264;2024-01-30T07:12:16;2.13;;;1.93;;
6356;SDS011;3211;53.452;-2.264;2024-01-30T07:15:04;4.00;;;2.10;;
6356;SDS011;3211;53.452;-2.264;2024-01-30T07:17:53;2.50;;;2.17;;
6356;SDS011;3211;53.452;-2.264;2024-01-30T07:20:40;3.17;;;2.20;;
6356;SDS011;3211;53.452;-2.264;2024-01-30T07:23:32;2.83;;;2.10;;
6356;SDS011;3211;53.452;-2.264;2024-01-30T07:26:20;2.97;;;2.60;;
6356;SDS011;3211;53.452;-2.264;2024-01-30T07:29:07;3.10;;;2.83;;
6356;SDS011;3211;53.452;-2.264;2024-01-30T07:31:55;4.43;;;3.37;;
6356;SDS011;3211;53.452;-2.264;2024-01-30T07:34:42;4.30;;;3.90;;
6356;SDS011;3211;53.452;-2.264;2024-01-30T07:37:29;5.07;;;3.37;;
6356;SDS011;3211;53.452;-2.264;2024-01-30T07:40:18;4.50;;;3.80;;
6356;SDS011;3211;53.452;-2.264;2024-01-30T07:43:05;4.70;;;3.87;;
6356;SDS011;3211;53.452;-2.264;2024-01-30T07:45:52;4.20;;;2.90;;
6356;SDS011;3211;53.452;-2.264;2024-01-30T07:48:40;3.40;;;3.00;;
6356;SDS011;3211;53.452;-2.264;2024-01-30T07:51:27;3.63;;;3.30;;
6356;SDS011;3211;53.452;-2.264;2024-01-30T07:54:17;3.70;;;3.27;;
6356;SDS011;3211;53.452;-2.264;2024-01-30T07:57:05;10.03;;;3.43;;
6356;SDS011;3211;53.452;-2.264;2024-01-30T07:59:53;3.10;;;2.80;;
6356;SDS011;3211;53.452;-2.264;2024-01-30T08:02:40;3.10;;;2.80;;
6356;SDS011;3211;53.452;-2.264;2024-01-30T08:05:28;3.17;;;2.87;;
6356;SDS011;3211;53.452;-2.264;2024-01-30T08:08:15;3.27;;;2.60;;
6356;SDS011;3211;53.452;-2.264;2024-01-30T08:11:03;2.60;;;2.40;;
6356;SDS011;3211;53.452;-2.264;2024-01-30T08:13:52;2.33;;;2.13;;
6356;SDS011;3211;53.452;-2.264;2024-01-30T08:16:39;2.57;;;2.30;;
6356;SDS011;3211;53.452;-2.264;2024-01-30T08:19:26;2.30;;;2.10;;
6356;SDS011;3211;53.452;-2.264;2024-01-30T08:22:14;2.47;;;2.27;;
6356;SDS011;3211;53.452;-2.264;2024-01-30T08:25:01;4.50;;;1.90;;
6356;SDS011;3211;53.452;-2.264;2024-01-30T08:27:48;2.67;;;2.47;;
6356;SDS011;3211;53.452;-2.264;2024-01-30T08:30:37;2.53;;;2.33;;
6356;SDS011;3211;53.452;-2.264;2024-01-30T08:33:25;2.50;;;2.30;;
6356;SDS011;3211;53.452;-2.264;2024-01-30T08:36:12;2.77;;;2.57;;
6356;SDS011;3211;53.452;-2.264;2024-01-30T08:38:59;2.70;;;2.50;;
6356;SDS011;3211;53.452;-2.264;2024-01-30T08:41:47;2.92;;;2.42;;
6356;SDS011;3211;53.452;-2.264;2024-01-30T08:44:35;2.20;;;2.00;;
6356;SDS011;3211;53.452;-2.264;2024-01-30T08:47:24;2.20;;;2.00;;
6356;SDS011;3211;53.452;-2.264;2024-01-30T08:50:11;2.07;;;1.93;;
6356;SDS011;3211;53.452;-2.264;2024-01-30T08:52:59;2.00;;;1.80;;
6356;SDS011;3211;53.452;-2.264;2024-01-30T08:55:46;2.70;;;2.20;;
6356;SDS011;3211;53.452;-2.264;2024-01-30T08:58:34;2.03;;;1.83;;
6356;SDS011;3211;53.452;-2.264;2024-01-30T09:01:21;1.70;;;1.60;;
6356;SDS011;3211;53.452;-2.264;2024-01-30T09:04:10;1.50;;;1.40;;
6356;SDS011;3211;53.452;-2.264;2024-01-30T09:06:57;1.80;;;1.53;;
6356;SDS011;3211;53.452;-2.264;2024-01-30T09:09:44;1.53;;;1.40;;
6356;SDS011;3211;53.452;-2.264;2024-01-30T09:12:31;1.57;;;1.40;;
6356;SDS011;3211;53.452;-2.264;2024-01-30T09:15:19;1.73;;;1.40;;
6356;SDS011;3211;53.452;-2.264;2024-01-30T09:18:06;1.70;;;1.50;;
6356;SDS011;3211;53.452;-2.264;2024-01-30T09:20:55;1.70;;;1.60;;
6356;SDS011;3211;53.452;-2.264;2024-01-30T09:23:42;1.50;;;1.40;;
6356;SDS011;3211;53.452;-2.264;2024-01-30T09:26:29;2.00;;;1.30;;
6356;SDS011;3211;53.452;-2.264;2024-01-30T09:29:17;1.73;;;1.40;;
6356;SDS011;3211;53.452;-2.264;2024-01-30T09:32:04;1.47;;;1.37;;
6356;SDS011;3211;53.452;-2.264;2024-01-30T09:34:54;1.40;;;1.30;;
6356;SDS011;3211;53.452;-2.264;2024-01-30T09:37:43;1.60;;;1.30;;
6356;SDS011;3211;53.452;-2.264;2024-01-30T09:40:30;1.47;;;1.30;;
6356;SDS011;3211;53.452;-2.264;2024-01-30T09:43:17;1.30;;;1.20;;
6356;SDS011;3211;53.452;-2.264;2024-01-30T09:46:11;1.30;;;1.20;;
6356;SDS011;3211;53.452;-2.264;2024-01-30T09:49:00;1.70;;;1.50;;
6356;SDS011;3211;53.452;-2.264;2024-01-30T09:51:49;1.10;;;1.00;;
6356;SDS011;3211;53.452;-2.264;2024-01-30T09:54:39;1.80;;;1.30;;
6356;SDS011;3211;53.452;-2.264;2024-01-30T09:57:28;2.77;;;1.40;;
6356;SDS011;3211;53.452;-2.264;2024-01-30T10:00:15;1.17;;;1.07;;
6356;SDS011;3211;53.452;-2.264;2024-01-30T10:03:03;1.43;;;1.30;;
6356;SDS011;3211;53.452;-2.264;2024-01-30T10:05:51;1.40;;;1.30;;
6356;SDS011;3211;53.452;-2.264;2024-01-30T10:08:39;1.10;;;1.00;;
6356;SDS011;3211;53.452;-2.264;2024-01-30T10:11:27;1.10;;;1.00;;
6356;SDS011;3211;53.452;-2.264;2024-01-30T10:14:15;1.13;;;1.03;;
6356;SDS011;3211;53.452;-2.264;2024-01-30T10:17:03;1.53;;;1.03;;
6356;SDS011;3211;53.452;-2.264;2024-01-30T10:19:51;1.40;;;1.30;;
6356;SDS011;3211;53.452;-2.264;2024-01-30T10:22:39;1.20;;;1.10;;
6356;SDS011;3211;53.452;-2.264;2024-01-30T10:25:28;1.00;;;0.90;;
6356;SDS011;3211;53.452;-2.264;2024-01-30T10:28:16;1.10;;;1.00;;
6356;SDS011;3211;53.452;-2.264;2024-01-30T10:31:04;1.07;;;0.97;;
6356;SDS011;3211;53.452;-2.264;2024-01-30T10:33:51;1.63;;;1.00;;
6356;SDS011;3211;53.452;-2.264;2024-01-30T10:36:39;0.80;;;0.80;;
6356;SDS011;3211;53.452;-2.264;2024-01-30T10:39:29;1.00;;;0.90;;
6356;SDS011;3211;53.452;-2.264;2024-01-30T10:42:17;0.80;;;0.80;;
6356;SDS011;3211;53.452;-2.264;2024-01-30T10:45:07;0.87;;;0.80;;
6356;SDS011;3211;53.452;-2.264;2024-01-30T10:47:56;1.00;;;0.90;;
6356;SDS011;3211;53.452;-2.264;2024-01-30T10:50:45;0.90;;;0.80;;
6356;SDS011;3211;53.452;-2.264;2024-01-30T10:53:33;1.00;;;0.90;;
6356;SDS011;3211;53.452;-2.264;2024-01-30T10:56:21;1.50;;;1.10;;
6356;SDS011;3211;53.452;-2.264;2024-01-30T10:59:09;1.13;;;1.00;;
6356;SDS011;3211;53.452;-2.264;2024-01-30T11:02:00;1.10;;;1.00;;
6356;SDS011;3211;53.452;-2.264;2024-01-30T11:04:48;1.20;;;1.10;;
6356;SDS011;3211;53.452;-2.264;2024-01-30T11:07:35;1.67;;;0.90;;
6356;SDS011;3211;53.452;-2.264;2024-01-30T11:10:24;1.00;;;0.90;;
6356;SDS011;3211;53.452;-2.264;2024-01-30T11:13:13;1.57;;;1.47;;
6356;SDS011;3211;53.452;-2.264;2024-01-30T11:16:01;0.90;;;0.90;;
6356;SDS011;3211;53.452;-2.264;2024-01-30T11:18:52;1.63;;;1.20;;
6356;SDS011;3211;53.452;-2.264;2024-01-30T11:21:41;1.00;;;0.90;;
6356;SDS011;3211;53.452;-2.264;2024-01-30T11:24:29;1.47;;;1.07;;
6356;SDS011;3211;53.452;-2.264;2024-01-30T11:27:16;1.10;;;1.00;;
6356;SDS011;3211;53.452;-2.264;2024-01-30T11:30:06;0.97;;;0.90;;
6356;SDS011;3211;53.452;-2.264;2024-01-30T11:32:59;0.93;;;0.90;;
6356;SDS011;3211;53.452;-2.264;2024-01-30T11:35:51;1.00;;;0.90;;
6356;SDS011;3211;53.452;-2.264;2024-01-30T11:38:39;1.20;;;1.10;;
6356;SDS011;3211;53.452;-2.264;2024-01-30T11:41:28;0.90;;;0.90;;
6356;SDS011;3211;53.452;-2.264;2024-01-30T11:44:19;0.83;;;0.83;;
6356;SDS011;3211;53.452;-2.264;2024-01-30T11:47:07;1.00;;;0.90;;
6356;SDS011;3211;53.452;-2.264;2024-01-30T11:49:57;2.23;;;0.93;;
6356;SDS011;3211;53.452;-2.264;2024-01-30T11:52:45;1.20;;;0.90;;
6356;SDS011;3211;53.452;-2.264;2024-01-30T11:55:33;1.17;;;1.00;;
6356;SDS011;3211;53.452;-2.264;2024-01-30T11:58:24;1.00;;;0.90;;
6356;SDS011;3211;53.452;-2.264;2024-01-30T12:01:17;1.37;;;1.20;;
6356;SDS011;3211;53.452;-2.264;2024-01-30T12:04:04;1.10;;;1.00;;
6356;SDS011;3211;53.452;-2.264;2024-01-30T12:06:54;1.73;;;1.20;;
6356;SDS011;3211;53.452;-2.264;2024-01-30T12:09:51;1.10;;;1.00;;
6356;SDS011;3211;53.452;-2.264;2024-01-30T12:12:39;1.30;;;1.20;;
6356;SDS011;3211;53.452;-2.264;2024-01-30T12:15:29;1.40;;;1.30;;
6356;SDS011;3211;53.452;-2.264;2024-01-30T12:18:18;2.13;;;1.10;;
6356;SDS011;3211;53.452;-2.264;2024-01-30T12:21:06;2.63;;;1.40;;
6356;SDS011;3211;53.452;-2.264;2024-01-30T12:23:54;1.27;;;1.17;;
6356;SDS011;3211;53.452;-2.264;2024-01-30T12:26:46;1.20;;;1.10;;
6356;SDS011;3211;53.452;-2.264;2024-01-30T12:29:41;1.30;;;1.20;;
6356;SDS011;3211;53.452;-2.264;2024-01-30T12:32:29;2.33;;;1.27;;
6356;SDS011;3211;53.452;-2.264;2024-01-30T12:35:17;1.20;;;1.10;;
6356;SDS011;3211;53.452;-2.264;2024-01-30T12:38:06;2.17;;;1.10;;
6356;SDS011;3211;53.452;-2.264;2024-01-30T12:40:54;2.90;;;1.33;;
6356;SDS011;3211;53.452;-2.264;2024-01-30T12:43:43;1.20;;;1.10;;
6356;SDS011;3211;53.452;-2.264;2024-01-30T12:46:30;1.50;;;1.20;;
6356;SDS011;3211;53.452;-2.264;2024-01-30T12:49:18;1.30;;;1.20;;
6356;SDS011;3211;53.452;-2.264;2024-01-30T12:52:06;1.30;;;1.20;;
6356;SDS011;3211;53.452;-2.264;2024-01-30T12:54:54;2.60;;;1.37;;
6356;SDS011;3211;53.452;-2.264;2024-01-30T12:57:41;2.17;;;1.30;;
6356;SDS011;3211;53.452;-2.264;2024-01-30T13:00:31;2.80;;;1.33;;
6356;SDS011;3211;53.452;-2.264;2024-01-30T13:03:19;2.10;;;1.13;;
6356;SDS011;3211;53.452;-2.264;2024-01-30T13:06:09;4.63;;;1.30;;
6356;SDS011;3211;53.452;-2.264;2024-01-30T13:08:56;2.20;;;1.27;;
6356;SDS011;3211;53.452;-2.264;2024-01-30T13:11:43;1.83;;;1.30;;
6356;SDS011;3211;53.452;-2.264;2024-01-30T13:14:31;3.23;;;1.30;;
6356;SDS011;3211;53.452;-2.264;2024-01-30T13:17:20;1.43;;;1.20;;
6356;SDS011;3211;53.452;-2.264;2024-01-30T13:20:08;2.67;;;1.20;;
6356;SDS011;3211;53.452;-2.264;2024-01-30T13:22:57;1.40;;;1.17;;
6356;SDS011;3211;53.452;-2.264;2024-01-30T13:25:47;1.27;;;1.17;;
6356;SDS011;3211;53.452;-2.264;2024-01-30T13:28:35;5.77;;;1.13;;
6356;SDS011;3211;53.452;-2.264;2024-01-30T13:31:23;2.20;;;1.30;;
6356;SDS011;3211;53.452;-2.264;2024-01-30T13:34:12;2.47;;;1.30;;
6356;SDS011;3211;53.452;-2.264;2024-01-30T13:37:02;3.83;;;1.10;;
6356;SDS011;3211;53.452;-2.264;2024-01-30T13:39:50;1.37;;;1.20;;
6356;SDS011;3211;53.452;-2.264;2024-01-30T13:42:38;1.37;;;1.10;;
6356;SDS011;3211;53.452;-2.264;2024-01-30T13:45:26;2.20;;;1.10;;
6356;SDS011;3211;53.452;-2.264;2024-01-30T13:48:14;1.70;;;1.20;;
6356;SDS011;3211;53.452;-2.264;2024-01-30T13:51:03;1.07;;;0.97;;
6356;SDS011;3211;53.452;-2.264;2024-01-30T13:53:51;1.40;;;1.17;;
6356;SDS011;3211;53.452;-2.264;2024-01-30T13:56:39;2.07;;;1.30;;
6356;SDS011;3211;53.452;-2.264;2024-01-30T13:59:27;4.23;;;1.60;;
6356;SDS011;3211;53.452;-2.264;2024-01-30T14:02:14;3.00;;;1.20;;
6356;SDS011;3211;53.452;-2.264;2024-01-30T14:05:01;4.40;;;1.30;;
6356;SDS011;3211;53.452;-2.264;2024-01-30T14:07:53;1.20;;;1.10;;
6356;SDS011;3211;53.452;-2.264;2024-01-30T14:10:41;1.73;;;1.13;;
6356;SDS011;3211;53.452;-2.264;2024-01-30T14:13:29;1.97;;;1.10;;
6356;SDS011;3211;53.452;-2.264;2024-01-30T14:16:18;2.77;;;1.20;;
6356;SDS011;3211;53.452;-2.264;2024-01-30T14:19:05;1.33;;;1.07;;
6356;SDS011;3211;53.452;-2.264;2024-01-30T14:21:56;1.67;;;1.10;;
6356;SDS011;3211;53.452;-2.264;2024-01-30T14:24:56;2.70;;;1.20;;
6356;SDS011;3211;53.452;-2.264;2024-01-30T14:27:47;4.80;;;1.37;;
6356;SDS011;3211;53.452;-2.264;2024-01-30T14:30:35;2.03;;;1.63;;
6356;SDS011;3211;53.452;-2.264;2024-01-30T14:33:22;2.20;;;1.40;;
6356;SDS011;3211;53.452;-2.264;2024-01-30T14:36:09;3.97;;;1.40;;
6356;SDS011;3211;53.452;-2.264;2024-01-30T14:38:57;2.40;;;1.33;;
6356;SDS011;3211;53.452;-2.264;2024-01-30T14:41:46;2.07;;;1.40;;
6356;SDS011;3211;53.452;-2.264;2024-01-30T14:44:34;1.77;;;1.20;;
6356;SDS011;3211;53.452;-2.264;2024-01-30T14:47:21;3.03;;;1.40;;
6356;SDS011;3211;53.452;-2.264;2024-01-30T14:50:10;3.07;;;1.40;;
6356;SDS011;3211;53.452;-2.264;2024-01-30T14:52:58;5.57;;;1.80;;
6356;SDS011;3211;53.452;-2.264;2024-01-30T14:55:45;8.83;;;1.97;;
6356;SDS011;3211;53.452;-2.264;2024-01-30T14:58:46;3.37;;;1.30;;
6356;SDS011;3211;53.452;-2.264;2024-01-30T15:01:39;2.60;;;1.50;;
6356;SDS011;3211;53.452;-2.264;2024-01-30T15:04:26;3.00;;;1.40;;
6356;SDS011;3211;53.452;-2.264;2024-01-30T15:07:14;1.93;;;1.23;;
6356;SDS011;3211;53.452;-2.264;2024-01-30T15:10:02;8.00;;;1.60;;
6356;SDS011;3211;53.452;-2.264;2024-01-30T15:12:52;2.20;;;1.33;;
6356;SDS011;3211;53.452;-2.264;2024-01-30T15:15:44;4.70;;;1.53;;
6356;SDS011;3211;53.452;-2.264;2024-01-30T15:18:31;1.97;;;1.30;;
6356;SDS011;3211;53.452;-2.264;2024-01-30T15:21:21;3.37;;;1.23;;
6356;SDS011;3211;53.452;-2.264;2024-01-30T15:24:09;3.60;;;1.60;;
6356;SDS011;3211;53.452;-2.264;2024-01-30T15:27:00;8.97;;;1.93;;
6356;SDS011;3211;53.452;-2.264;2024-01-30T15:29:48;2.23;;;1.20;;
6356;SDS011;3211;53.452;-2.264;2024-01-30T15:32:38;3.37;;;1.27;;
6356;SDS011;3211;53.452;-2.264;2024-01-30T15:35:25;3.40;;;1.27;;
6356;SDS011;3211;53.452;-2.264;2024-01-30T15:38:13;1.40;;;1.10;;
6356;SDS011;3211;53.452;-2.264;2024-01-30T15:41:07;5.90;;;1.23;;
6356;SDS011;3211;53.452;-2.264;2024-01-30T15:43:55;3.03;;;1.27;;
6356;SDS011;3211;53.452;-2.264;2024-01-30T15:46:48;4.40;;;1.40;;
6356;SDS011;3211;53.452;-2.264;2024-01-30T15:49:37;2.73;;;1.60;;
6356;SDS011;3211;53.452;-2.264;2024-01-30T15:52:25;2.77;;;1.40;;
6356;SDS011;3211;53.452;-2.264;2024-01-30T15:55:13;4.70;;;1.57;;
6356;SDS011;3211;53.452;-2.264;2024-01-30T15:58:03;2.80;;;1.40;;
6356;SDS011;3211;53.452;-2.264;2024-01-30T16:00:51;2.50;;;1.50;;
6356;SDS011;3211;53.452;-2.264;2024-01-30T16:03:39;3.43;;;1.40;;
6356;SDS011;3211;53.452;-2.264;2024-01-30T16:06:28;3.97;;;1.30;;
6356;SDS011;3211;53.452;-2.264;2024-01-30T16:09:18;2.43;;;1.40;;
6356;SDS011;3211;53.452;-2.264;2024-01-30T16:12:11;4.90;;;1.67;;
6356;SDS011;3211;53.452;-2.264;2024-01-30T16:15:01;6.70;;;1.70;;
6356;SDS011;3211;53.452;-2.264;2024-01-30T16:18:13;4.37;;;2.20;;
6356;SDS011;3211;53.452;-2.264;2024-01-30T16:21:11;4.63;;;1.90;;
6356;SDS011;3211;53.452;-2.264;2024-01-30T16:24:01;6.20;;;1.57;;
6356;SDS011;3211;53.452;-2.264;2024-01-30T16:26:49;2.53;;;1.60;;
6356;SDS011;3211;53.452;-2.264;2024-01-30T16:29:37;3.23;;;1.53;;
6356;SDS011;3211;53.452;-2.264;2024-01-30T16:32:27;4.30;;;1.53;;
6356;SDS011;3211;53.452;-2.264;2024-01-30T16:35:16;5.20;;;2.67;;
6356;SDS011;3211;53.452;-2.264;2024-01-30T16:38:27;5.23;;;1.80;;
6356;SDS011;3211;53.452;-2.264;2024-01-30T16:41:20;5.00;;;1.40;;
6356;SDS011;3211;53.452;-2.264;2024-01-30T16:44:24;2.60;;;1.67;;
6356;SDS011;3211;53.452;-2.264;2024-01-30T16:47:17;3.47;;;1.70;;
6356;SDS011;3211;53.452;-2.264;2024-01-30T16:50:07;6.87;;;1.97;;
6356;SDS011;3211;53.452;-2.264;2024-01-30T16:52:54;2.00;;;1.40;;
6356;SDS011;3211;53.452;-2.264;2024-01-30T16:55:42;3.30;;;1.60;;
6356;SDS011;3211;53.452;-2.264;2024-01-30T16:58:32;4.10;;;1.77;;
6356;SDS011;3211;53.452;-2.264;2024-01-30T17:01:20;3.63;;;2.17;;
6356;SDS011;3211;53.452;-2.264;2024-01-30T17:04:08;4.70;;;2.10;;
6356;SDS011;3211;53.452;-2.264;2024-01-30T17:06:55;4.10;;;1.73;;
6356;SDS011;3211;53.452;-2.264;2024-01-30T17:09:47;5.83;;;2.53;;